createdAt,value
2018-10-07T00:01:53.726Z,97295.00
2018-10-07T00:04:25.457Z,97294.00
2018-10-07T00:06:57.362Z,97297.00
2018-10-07T00:09:29.178Z,97289.00
2018-10-07T00:12:00.964Z,97294.00
2018-10-07T00:14:32.709Z,97290.00
2018-10-07T00:17:04.454Z,97290.00
2018-10-07T00:19:36.223Z,97291.00
2018-10-07T00:22:08.094Z,97289.00
2018-10-07T00:24:39.830Z,97286.00
2018-10-07T00:27:11.590Z,97284.00
2018-10-07T00:29:43.341Z,97285.00
2018-10-07T00:32:16.830Z,97284.00
2018-10-07T00:34:48.739Z,97281.00
2018-10-07T00:37:20.387Z,97279.00
2018-10-07T00:39:52.258Z,97281.00
2018-10-07T00:42:23.901Z,97284.00
2018-10-07T00:44:55.767Z,97281.00
2018-10-07T00:47:27.402Z,97283.00
2018-10-07T00:49:59.031Z,97283.00
2018-10-07T00:52:30.839Z,97282.00
2018-10-07T00:55:02.591Z,97274.00
2018-10-07T00:57:34.365Z,97274.00
2018-10-07T01:00:06.604Z,97281.00
2018-10-07T01:02:38.576Z,97279.00
2018-10-07T01:05:10.348Z,97280.00
2018-10-07T01:07:42.135Z,97285.00
2018-10-07T01:10:13.974Z,97281.00
2018-10-07T01:12:45.809Z,97287.00
2018-10-07T01:15:17.777Z,97282.00
2018-10-07T01:17:49.669Z,97279.00
2018-10-07T01:20:21.493Z,97281.00
2018-10-07T01:22:53.081Z,97284.00
2018-10-07T01:25:24.717Z,97294.00
2018-10-07T01:27:56.469Z,97294.00
2018-10-07T01:30:28.131Z,97292.00
2018-10-07T01:32:59.749Z,97292.00
2018-10-07T01:35:31.557Z,97289.00
2018-10-07T01:38:03.170Z,97296.00
2018-10-07T01:40:34.983Z,97293.00
2018-10-07T01:43:06.844Z,97295.00
2018-10-07T01:45:38.378Z,97295.00
2018-10-07T01:48:10.128Z,97293.00
2018-10-07T01:50:41.818Z,97297.00
2018-10-07T01:53:13.589Z,97303.00
2018-10-07T01:55:45.345Z,97300.00
2018-10-07T01:58:17.074Z,97300.00
2018-10-07T02:00:48.851Z,97295.00
2018-10-07T02:03:20.609Z,97297.00
2018-10-07T02:05:52.365Z,97299.00
2018-10-07T02:08:24.128Z,97298.00
2018-10-07T02:10:55.886Z,97299.00
2018-10-07T02:13:27.529Z,97299.00
2018-10-07T02:15:59.405Z,97301.00
2018-10-07T02:18:31.039Z,97298.00
2018-10-07T02:21:02.689Z,97301.00
2018-10-07T02:23:34.474Z,97308.00
2018-10-07T02:26:06.325Z,97308.00
2018-10-07T02:28:38.170Z,97306.00
2018-10-07T02:31:10.049Z,97312.00
2018-10-07T02:33:41.593Z,97312.00
2018-10-07T02:36:13.338Z,97315.00
2018-10-07T02:38:45.098Z,97313.00
2018-10-07T02:41:17.096Z,97313.00
2018-10-07T02:43:48.749Z,97311.00
2018-10-07T02:46:20.590Z,97312.00
2018-10-07T02:48:52.241Z,97314.00
2018-10-07T02:51:24.308Z,97311.00
2018-10-07T02:53:56.341Z,97315.00
2018-10-07T02:56:28.338Z,97315.00
2018-10-07T02:59:00.227Z,97319.00
2018-10-07T03:01:32.077Z,97318.00
2018-10-07T03:04:04.147Z,97322.00
2018-10-07T03:06:35.802Z,97327.00
2018-10-07T03:09:09.893Z,97334.00
2018-10-07T03:11:41.687Z,97332.00
2018-10-07T03:14:13.331Z,97331.00
2018-10-07T03:16:45.067Z,97332.00
2018-10-07T03:19:16.640Z,97331.00
2018-10-07T03:21:48.383Z,97333.00
2018-10-07T03:24:20.034Z,97337.00
2018-10-07T03:26:51.792Z,97337.00
2018-10-07T03:29:23.643Z,97341.00
2018-10-07T03:31:55.426Z,97343.00
2018-10-07T03:34:27.173Z,97343.00
2018-10-07T03:36:58.940Z,97347.00
2018-10-07T03:39:30.621Z,97350.00
2018-10-07T03:42:02.382Z,97352.00
2018-10-07T03:44:34.098Z,97364.00
2018-10-07T03:47:05.797Z,97361.00
2018-10-07T03:49:37.729Z,97366.00
2018-10-07T03:52:09.508Z,97370.00
2018-10-07T03:54:41.285Z,97374.00
2018-10-07T03:57:13.001Z,97373.00
2018-10-07T03:59:44.847Z,97377.00
2018-10-07T04:02:16.764Z,97376.00
2018-10-07T04:04:48.729Z,97380.00
2018-10-07T04:07:20.653Z,97379.00
2018-10-07T04:09:52.311Z,97384.00
2018-10-07T04:12:24.104Z,97380.00
2018-10-07T04:14:55.737Z,97380.00
2018-10-07T04:17:27.410Z,97383.00
2018-10-07T04:19:59.065Z,97387.00
2018-10-07T04:22:30.905Z,97387.00
2018-10-07T04:25:02.581Z,97394.00
2018-10-07T04:27:34.424Z,97404.00
2018-10-07T04:30:06.111Z,97409.00
2018-10-07T04:32:37.855Z,97404.00
2018-10-07T04:35:09.806Z,97405.00
2018-10-07T04:37:41.590Z,97411.00
2018-10-07T04:40:13.335Z,97407.00
2018-10-07T04:42:45.916Z,97405.00
2018-10-07T04:45:17.586Z,97406.00
2018-10-07T04:47:49.413Z,97411.00
2018-10-07T04:50:21.177Z,97408.00
2018-10-07T04:52:52.849Z,97415.00
2018-10-07T04:55:24.621Z,97419.00
2018-10-07T04:57:56.270Z,97416.00
2018-10-07T05:00:28.002Z,97414.00
2018-10-07T05:02:59.678Z,97416.00
2018-10-07T05:05:31.817Z,97418.00
2018-10-07T05:08:03.730Z,97417.00
2018-10-07T05:10:53.181Z,97417.00
2018-10-07T05:13:27.632Z,97415.00
2018-10-07T05:16:04.440Z,97412.00
2018-10-07T05:18:36.361Z,97419.00
2018-10-07T05:21:08.347Z,97420.00
2018-10-07T05:23:40.391Z,97424.00
2018-10-07T05:26:12.157Z,97427.00
2018-10-07T05:28:44.113Z,97429.00
2018-10-07T05:31:15.838Z,97425.00
2018-10-07T05:33:47.700Z,97429.00
2018-10-07T05:36:19.471Z,97433.00
2018-10-07T05:38:51.286Z,97438.00
2018-10-07T05:41:23.008Z,97441.00
2018-10-07T05:43:54.867Z,97438.00
2018-10-07T05:46:26.720Z,97446.00
2018-10-07T05:48:58.661Z,97453.00
2018-10-07T05:51:30.521Z,97461.00
2018-10-07T05:54:02.194Z,97464.00
2018-10-07T05:56:33.916Z,97462.00
2018-10-07T05:59:06.631Z,97464.00
2018-10-07T06:01:43.274Z,97463.00
2018-10-07T06:04:28.754Z,97464.00
2018-10-07T06:07:02.830Z,97470.00
2018-10-07T06:09:37.901Z,97472.00
2018-10-07T06:12:09.677Z,97477.00
2018-10-07T06:14:57.829Z,97477.00
2018-10-07T06:17:29.827Z,97478.00
2018-10-07T06:20:01.788Z,97482.00
2018-10-07T06:22:33.543Z,97482.00
2018-10-07T06:25:05.507Z,97487.00
2018-10-07T06:27:37.451Z,97495.00
2018-10-07T06:30:09.268Z,97496.00
2018-10-07T06:32:41.116Z,97501.00
2018-10-07T06:35:13.080Z,97498.00
2018-10-07T06:37:45.003Z,97500.00
2018-10-07T06:40:16.687Z,97509.00
2018-10-07T06:42:48.645Z,97514.00
2018-10-07T06:45:20.903Z,97519.00
2018-10-07T06:47:52.382Z,97521.00
2018-10-07T06:50:24.319Z,97521.00
2018-10-07T06:52:56.257Z,97529.00
2018-10-07T06:55:28.043Z,97532.00
2018-10-07T06:57:59.808Z,97537.00
2018-10-07T07:00:31.558Z,97532.00
2018-10-07T07:03:03.286Z,97532.00
2018-10-07T07:05:35.061Z,97540.00
2018-10-07T07:08:07.005Z,97534.00
2018-10-07T07:10:38.790Z,97540.00
2018-10-07T07:13:10.620Z,97542.00
2018-10-07T07:15:42.426Z,97537.00
2018-10-07T07:18:14.269Z,97541.00
2018-10-07T07:20:46.023Z,97548.00
2018-10-07T07:23:17.775Z,97548.00
2018-10-07T07:25:49.486Z,97551.00
2018-10-07T07:28:21.190Z,97556.00
2018-10-07T07:30:52.849Z,97567.00
2018-10-07T07:33:24.712Z,97561.00
2018-10-07T07:35:56.561Z,97565.00
2018-10-07T07:38:28.231Z,97567.00
2018-10-07T07:40:59.901Z,97558.00
2018-10-07T07:43:31.641Z,97565.00
2018-10-07T07:46:03.416Z,97568.00
2018-10-07T07:48:35.190Z,97575.00
2018-10-07T07:51:07.228Z,97580.00
2018-10-07T07:53:39.077Z,97586.00
2018-10-07T07:56:10.766Z,97592.00
2018-10-07T07:58:42.405Z,97592.00
2018-10-07T08:01:14.058Z,97598.00
2018-10-07T08:03:46.147Z,97600.00
2018-10-07T08:06:17.982Z,97606.00
2018-10-07T08:08:49.489Z,97612.00
2018-10-07T08:11:21.206Z,97611.00
2018-10-07T08:13:52.987Z,97609.00
2018-10-07T08:16:32.732Z,97620.00
2018-10-07T08:19:05.485Z,97622.00
2018-10-07T08:21:37.241Z,97622.00
2018-10-07T08:24:09.022Z,97612.00
2018-10-07T08:26:40.862Z,97609.00
2018-10-07T08:29:12.522Z,97612.00
2018-10-07T08:31:44.200Z,97614.00
2018-10-07T08:34:16.033Z,97614.00
2018-10-07T08:36:48.329Z,97617.00
2018-10-07T08:39:19.874Z,97625.00
2018-10-07T08:41:51.717Z,97626.00
2018-10-07T08:44:23.399Z,97635.00
2018-10-07T08:46:55.185Z,97632.00
2018-10-07T08:49:27.123Z,97636.00
2018-10-07T08:51:58.962Z,97639.00
2018-10-07T08:54:30.753Z,97641.00
2018-10-07T08:57:02.507Z,97644.00
2018-10-07T08:59:34.342Z,97646.00
2018-10-07T09:02:06.203Z,97638.00
2018-10-07T09:04:38.105Z,97641.00
2018-10-07T09:07:09.942Z,97640.00
2018-10-07T09:09:41.793Z,97642.00
2018-10-07T09:12:13.363Z,97646.00
2018-10-07T09:14:45.378Z,97652.00
2018-10-07T09:17:17.057Z,97650.00
2018-10-07T09:19:48.494Z,97650.00
2018-10-07T09:22:20.077Z,97658.00
2018-10-07T09:24:51.531Z,97657.00
2018-10-07T09:27:23.362Z,97653.00
2018-10-07T09:29:55.264Z,97651.00
2018-10-07T09:32:27.329Z,97651.00
2018-10-07T09:34:59.098Z,97647.00
2018-10-07T09:37:30.960Z,97652.00
2018-10-07T09:40:02.913Z,97655.00
2018-10-07T09:42:34.569Z,97652.00
2018-10-07T09:45:06.575Z,97648.00
2018-10-07T09:47:38.962Z,97646.00
2018-10-07T09:50:10.966Z,97647.00
2018-10-07T09:52:42.746Z,97641.00
2018-10-07T09:55:14.646Z,97646.00
2018-10-07T09:57:46.264Z,97639.00
2018-10-07T10:00:36.683Z,97641.00
2018-10-07T10:03:11.529Z,97635.00
2018-10-07T10:05:43.422Z,97634.00
2018-10-07T10:08:15.118Z,97634.00
2018-10-07T10:10:46.737Z,97637.00
2018-10-07T10:13:18.421Z,97635.00
2018-10-07T10:15:50.170Z,97629.00
2018-10-07T10:19:04.786Z,97628.00
2018-10-07T10:21:44.622Z,97632.00
2018-10-07T10:24:51.372Z,97636.00
2018-10-07T10:27:45.046Z,97630.00
2018-10-07T10:30:26.119Z,97629.00
2018-10-07T10:33:09.248Z,97622.00
2018-10-07T10:38:05.144Z,97619.00
2018-10-07T10:40:50.161Z,97620.00
2018-10-07T10:43:28.816Z,97623.00
2018-10-07T10:46:15.706Z,97625.00
2018-10-07T10:49:03.053Z,97630.00
2018-10-07T10:51:43.126Z,97627.00
2018-10-07T10:55:26.260Z,97621.00
2018-10-07T10:58:02.306Z,97623.00
2018-10-07T11:00:51.618Z,97615.00
2018-10-07T11:04:40.653Z,97608.00
2018-10-07T11:07:28.493Z,97598.00
2018-10-07T11:11:18.069Z,97596.00
2018-10-07T11:15:07.272Z,97599.00
2018-10-07T11:19:57.480Z,97606.00
2018-10-07T11:24:46.999Z,97604.00
2018-10-07T11:27:35.097Z,97601.00
2018-10-07T11:30:27.478Z,97608.00
2018-10-07T11:35:15.703Z,97609.00
2018-10-07T11:39:36.658Z,97604.00
2018-10-07T11:42:21.814Z,97604.00
2018-10-07T11:45:03.687Z,97606.00
2018-10-07T11:50:00.341Z,97604.00
2018-10-07T11:52:50.818Z,97600.00
2018-10-07T11:55:22.713Z,97594.00
2018-10-07T11:57:54.170Z,97591.00
2018-10-07T12:00:26.101Z,97592.00
2018-10-07T12:02:57.990Z,97596.00
2018-10-07T12:05:29.753Z,97591.00
2018-10-07T12:08:01.530Z,97590.00
2018-10-07T12:10:33.369Z,97591.00
2018-10-07T12:13:05.118Z,97589.00
2018-10-07T12:15:37.098Z,97594.00
2018-10-07T12:18:08.962Z,97594.00
2018-10-07T12:20:40.617Z,97590.00
2018-10-07T12:23:12.474Z,97595.00
2018-10-07T12:25:44.231Z,97593.00
2018-10-07T12:28:15.902Z,97599.00
2018-10-07T12:30:47.749Z,97594.00
2018-10-07T12:33:19.426Z,97590.00
2018-10-07T12:35:51.361Z,97590.00
2018-10-07T12:38:23.336Z,97590.00
2018-10-07T12:40:55.086Z,97588.00
2018-10-07T12:43:26.945Z,97596.00
2018-10-07T12:45:58.917Z,97589.00
2018-10-07T12:48:30.706Z,97605.00
2018-10-07T12:51:02.437Z,97601.00
2018-10-07T12:53:33.987Z,97608.00
2018-10-07T12:56:05.870Z,97617.00
2018-10-07T12:58:37.618Z,97622.00
2018-10-07T13:01:09.912Z,97623.00
2018-10-07T13:03:41.700Z,97624.00
2018-10-07T13:06:13.493Z,97625.00
2018-10-07T13:08:45.182Z,97633.00
2018-10-07T13:11:17.046Z,97633.00
2018-10-07T13:13:48.698Z,97634.00
2018-10-07T13:16:20.446Z,97634.00
2018-10-07T13:18:52.293Z,97637.00
2018-10-07T13:21:24.188Z,97640.00
2018-10-07T13:23:56.049Z,97630.00
2018-10-07T13:26:27.784Z,97623.00
2018-10-07T13:28:59.646Z,97625.00
2018-10-07T13:31:31.415Z,97620.00
2018-10-07T13:34:03.264Z,97627.00
2018-10-07T13:36:35.005Z,97620.00
2018-10-07T13:39:10.407Z,97622.00
2018-10-07T13:41:42.553Z,97625.00
2018-10-07T13:44:14.298Z,97623.00
2018-10-07T13:46:46.071Z,97616.00
2018-10-07T13:49:17.936Z,97617.00
2018-10-07T13:51:49.699Z,97625.00
2018-10-07T13:54:21.545Z,97620.00
2018-10-07T13:56:53.382Z,97624.00
2018-10-07T13:59:25.071Z,97628.00
2018-10-07T14:01:56.815Z,97626.00
2018-10-07T14:04:28.657Z,97630.00
2018-10-07T14:07:00.323Z,97617.00
2018-10-07T14:09:31.993Z,97618.00
2018-10-07T14:12:03.767Z,97619.00
2018-10-07T14:14:35.621Z,97618.00
2018-10-07T14:17:07.466Z,97631.00
2018-10-07T14:19:39.303Z,97637.00
2018-10-07T14:22:10.977Z,97642.00
2018-10-07T14:24:42.744Z,97647.00
2018-10-07T14:27:14.629Z,97642.00
2018-10-07T14:29:46.358Z,97642.00
2018-10-07T14:32:18.116Z,97642.00
2018-10-07T14:34:49.778Z,97652.00
2018-10-07T14:37:21.478Z,97650.00
2018-10-07T14:39:53.199Z,97653.00
2018-10-07T14:42:24.859Z,97655.00
2018-10-07T14:44:56.634Z,97650.00
2018-10-07T14:47:28.383Z,97652.00
2018-10-07T14:50:00.214Z,97657.00
2018-10-07T14:52:31.834Z,97665.00
2018-10-07T14:55:03.675Z,97668.00
2018-10-07T14:57:35.392Z,97683.00
2018-10-07T15:00:07.889Z,97682.00
2018-10-07T15:02:39.765Z,97687.00
2018-10-07T15:05:11.532Z,97691.00
2018-10-07T15:07:43.354Z,97698.00
2018-10-07T15:10:15.029Z,97696.00
2018-10-07T15:12:46.880Z,97704.00
2018-10-07T15:15:18.726Z,97699.00
2018-10-07T15:17:50.395Z,97704.00
2018-10-07T15:20:22.071Z,97709.00
2018-10-07T15:22:53.908Z,97716.00
2018-10-07T15:25:25.688Z,97718.00
2018-10-07T15:27:57.458Z,97720.00
2018-10-07T15:30:29.287Z,97724.00
2018-10-07T15:33:01.051Z,97727.00
2018-10-07T15:35:32.726Z,97732.00
2018-10-07T15:38:04.578Z,97738.00
2018-10-07T15:40:36.726Z,97741.00
2018-10-07T15:43:08.599Z,97749.00
2018-10-07T15:45:41.803Z,97754.00
2018-10-07T15:48:15.001Z,97753.00
2018-10-07T15:50:47.709Z,97765.00
2018-10-07T15:53:20.192Z,97768.00
2018-10-07T15:56:07.383Z,97768.00
2018-10-07T15:58:42.238Z,97778.00
2018-10-07T16:01:14.302Z,97781.00
2018-10-07T16:04:26.416Z,97789.00
2018-10-07T16:07:02.269Z,97795.00
2018-10-07T16:09:34.940Z,97805.00
2018-10-07T16:12:07.210Z,97807.00
2018-10-07T16:14:39.171Z,97814.00
2018-10-07T16:17:11.246Z,97824.00
2018-10-07T16:19:46.008Z,97828.00
2018-10-07T16:22:21.098Z,97835.00
2018-10-07T16:24:52.735Z,97842.00
2018-10-07T16:27:24.595Z,97852.00
2018-10-07T16:29:56.172Z,97856.00
2018-10-07T16:32:27.919Z,97853.00
2018-10-07T16:34:59.782Z,97863.00
2018-10-07T16:37:31.624Z,97869.00
2018-10-07T16:40:03.306Z,97872.00
2018-10-07T16:42:34.962Z,97876.00
2018-10-07T16:45:07.200Z,97885.00
2018-10-07T16:47:39.107Z,97889.00
2018-10-07T16:50:10.925Z,97897.00
2018-10-07T16:52:42.968Z,97902.00
2018-10-07T16:55:14.756Z,97910.00
2018-10-07T16:57:46.513Z,97920.00
2018-10-07T17:00:18.298Z,97927.00
2018-10-07T17:02:50.144Z,97927.00
2018-10-07T17:05:21.986Z,97931.00
2018-10-07T17:07:53.635Z,97931.00
2018-10-07T17:10:25.318Z,97940.00
2018-10-07T17:12:57.105Z,97942.00
2018-10-07T17:15:28.835Z,97948.00
2018-10-07T17:18:00.695Z,97956.00
2018-10-07T17:20:32.562Z,97960.00
2018-10-07T17:23:04.310Z,97962.00
2018-10-07T17:25:35.984Z,97963.00
2018-10-07T17:28:07.919Z,97971.00
2018-10-07T17:30:39.589Z,97968.00
2018-10-07T17:33:11.259Z,97984.00
2018-10-07T17:35:43.040Z,97991.00
2018-10-07T17:38:14.779Z,97989.00
2018-10-07T17:40:46.746Z,97989.00
2018-10-07T17:43:18.608Z,97992.00
2018-10-07T17:45:50.488Z,97995.00
2018-10-07T17:48:22.467Z,98004.00
2018-10-07T17:50:53.875Z,98010.00
2018-10-07T17:53:25.631Z,98007.00
2018-10-07T17:55:57.375Z,98013.00
2018-10-07T17:58:29.054Z,98017.00
2018-10-07T18:01:00.986Z,98016.00
2018-10-07T18:03:32.864Z,98022.00
2018-10-07T18:06:04.544Z,98023.00
2018-10-07T18:08:36.776Z,98026.00
2018-10-07T18:11:08.624Z,98034.00
2018-10-07T18:13:40.712Z,98038.00
2018-10-07T18:16:12.496Z,98042.00
2018-10-07T18:18:44.233Z,98042.00
2018-10-07T18:21:16.085Z,98057.00
2018-10-07T18:23:47.676Z,98051.00
2018-10-07T18:26:19.322Z,98052.00
2018-10-07T18:28:51.193Z,98057.00
2018-10-07T18:31:22.925Z,98062.00
2018-10-07T18:33:54.606Z,98070.00
2018-10-07T18:36:26.346Z,98069.00
2018-10-07T18:38:58.218Z,98078.00
2018-10-07T18:41:30.019Z,98078.00
2018-10-07T18:44:01.874Z,98079.00
2018-10-07T18:46:33.556Z,98085.00
2018-10-07T18:49:05.720Z,98089.00
2018-10-07T18:51:37.584Z,98095.00
2018-10-07T18:54:09.292Z,98088.00
2018-10-07T18:56:41.184Z,98093.00
2018-10-07T18:59:12.897Z,98100.00
2018-10-07T19:01:44.509Z,98104.00
2018-10-07T19:04:16.408Z,98113.00
2018-10-07T19:06:48.080Z,98111.00
2018-10-07T19:09:19.739Z,98116.00
2018-10-07T19:11:51.670Z,98118.00
2018-10-07T19:14:23.429Z,98128.00
2018-10-07T19:16:55.202Z,98134.00
2018-10-07T19:19:27.188Z,98140.00
2018-10-07T19:21:58.948Z,98141.00
2018-10-07T19:24:30.790Z,98144.00
2018-10-07T19:27:02.738Z,98148.00
2018-10-07T19:29:34.570Z,98145.00
2018-10-07T19:32:06.202Z,98154.00
2018-10-07T19:34:38.170Z,98151.00
2018-10-07T19:37:09.969Z,98162.00
2018-10-07T19:39:41.577Z,98163.00
2018-10-07T19:42:13.411Z,98167.00
2018-10-07T19:44:45.100Z,98176.00
2018-10-07T19:47:16.923Z,98184.00
2018-10-07T19:49:48.706Z,98187.00
2018-10-07T19:52:20.625Z,98188.00
2018-10-07T19:54:52.397Z,98188.00
2018-10-07T19:57:24.159Z,98189.00
2018-10-07T19:59:55.814Z,98185.00
2018-10-07T20:02:27.489Z,98179.00
2018-10-07T20:04:59.363Z,98178.00
2018-10-07T20:07:31.222Z,98175.00
2018-10-07T20:10:02.983Z,98182.00
2018-10-07T20:12:34.812Z,98182.00
2018-10-07T20:15:06.752Z,98191.00
2018-10-07T20:17:38.468Z,98195.00
2018-10-07T20:20:10.296Z,98199.00
2018-10-07T20:22:42.067Z,98201.00
2018-10-07T20:25:13.840Z,98201.00
2018-10-07T20:27:45.879Z,98194.00
2018-10-07T20:30:17.651Z,98194.00
2018-10-07T20:32:49.628Z,98196.00
2018-10-07T20:35:21.399Z,98195.00
2018-10-07T20:37:53.407Z,98199.00
2018-10-07T20:40:25.127Z,98198.00
2018-10-07T20:42:56.836Z,98195.00
2018-10-07T20:45:28.591Z,98192.00
2018-10-07T20:48:00.355Z,98196.00
2018-10-07T20:50:32.324Z,98205.00
2018-10-07T20:53:03.983Z,98207.00
2018-10-07T20:55:35.663Z,98204.00
2018-10-07T20:58:07.623Z,98198.00
2018-10-07T21:00:39.359Z,98195.00
2018-10-07T21:03:11.134Z,98195.00
2018-10-07T21:05:42.984Z,98193.00
2018-10-07T21:08:14.728Z,98194.00
2018-10-07T21:10:46.500Z,98193.00
2018-10-07T21:13:18.069Z,98194.00
2018-10-07T21:15:49.827Z,98193.00
2018-10-07T21:18:21.703Z,98192.00
2018-10-07T21:20:53.562Z,98187.00
2018-10-07T21:23:25.213Z,98189.00
2018-10-07T21:25:57.182Z,98194.00
2018-10-07T21:28:29.043Z,98199.00
2018-10-07T21:31:00.791Z,98202.00
2018-10-07T21:33:32.739Z,98207.00
2018-10-07T21:36:04.406Z,98204.00
2018-10-07T21:38:36.100Z,98207.00
2018-10-07T21:41:08.145Z,98213.00
2018-10-07T21:43:39.986Z,98216.00
2018-10-07T21:46:11.679Z,98214.00
2018-10-07T21:48:43.522Z,98209.00
2018-10-07T21:51:15.258Z,98212.00
2018-10-07T21:53:46.930Z,98216.00
2018-10-07T21:56:18.774Z,98216.00
2018-10-07T21:58:50.471Z,98210.00
2018-10-07T22:01:22.508Z,98205.00
2018-10-07T22:03:54.458Z,98196.00
2018-10-07T22:06:26.247Z,98197.00
2018-10-07T22:08:58.002Z,98206.00
2018-10-07T22:11:29.842Z,98214.00
2018-10-07T22:14:01.605Z,98222.00
2018-10-07T22:16:33.283Z,98228.00
2018-10-07T22:19:05.152Z,98222.00
2018-10-07T22:21:37.075Z,98219.00
2018-10-07T22:24:09.203Z,98225.00
2018-10-07T22:26:40.914Z,98220.00
2018-10-07T22:29:12.591Z,98217.00
2018-10-07T22:31:44.327Z,98222.00
2018-10-07T22:34:15.987Z,98220.00
2018-10-07T22:36:47.671Z,98218.00
2018-10-07T22:39:19.406Z,98208.00
2018-10-07T22:41:51.259Z,98207.00
2018-10-07T22:44:22.919Z,98206.00
2018-10-07T22:46:54.677Z,98208.00
2018-10-07T22:49:26.525Z,98213.00
2018-10-07T22:51:58.195Z,98210.00
2018-10-07T22:54:29.944Z,98213.00
2018-10-07T22:57:01.713Z,98223.00
2018-10-07T22:59:33.369Z,98217.00
2018-10-07T23:02:05.231Z,98216.00
2018-10-07T23:04:37.103Z,98215.00
2018-10-07T23:07:08.971Z,98212.00
2018-10-07T23:09:40.723Z,98209.00
2018-10-07T23:12:12.675Z,98207.00
2018-10-07T23:14:44.563Z,98200.00
2018-10-07T23:17:16.374Z,98200.00
2018-10-07T23:19:48.153Z,98203.00
2018-10-07T23:22:20.440Z,98201.00
2018-10-07T23:24:52.373Z,98205.00
2018-10-07T23:27:24.247Z,98215.00
2018-10-07T23:29:55.919Z,98219.00
2018-10-07T23:32:27.885Z,98226.00
2018-10-07T23:34:59.722Z,98243.00
2018-10-07T23:37:31.564Z,98252.00
2018-10-07T23:40:03.590Z,98261.00
2018-10-07T23:42:35.512Z,98267.00
2018-10-07T23:45:07.620Z,98257.00
2018-10-07T23:47:39.354Z,98251.00
2018-10-07T23:50:11.135Z,98242.00
2018-10-07T23:52:42.952Z,98241.00
2018-10-07T23:55:14.645Z,98238.00
2018-10-07T23:57:46.504Z,98240.00
